sensor_id;sensor_type;location;lat;lon;timestamp;P1;durP1;ratioP1;P2;durP2;ratioP2
2756;SDS011;1386;50.862;6.494;2023-04-09T06:26:04;38.67;;;26.97;;
2756;SDS011;1386;50.862;6.494;2023-04-09T06:28:31;41.23;;;28.67;;
2756;SDS011;1386;50.862;6.494;2023-04-09T06:30:58;41.27;;;27.10;;
2756;SDS011;1386;50.862;6.494;2023-04-09T06:33:54;46.37;;;28.23;;
2756;SDS011;1386;50.862;6.494;2023-04-09T06:36:23;49.17;;;30.60;;
2756;SDS011;1386;50.862;6.494;2023-04-09T06:38:55;47.90;;;31.73;;
2756;SDS011;1386;50.862;6.494;2023-04-09T06:41:24;46.53;;;30.50;;
2756;SDS011;1386;50.862;6.494;2023-04-09T06:46:45;58.10;;;37.03;;
2756;SDS011;1386;50.862;6.494;2023-04-09T06:49:12;58.90;;;36.37;;
2756;SDS011;1386;50.862;6.494;2023-04-09T06:54:35;58.10;;;36.83;;
2756;SDS011;1386;50.862;6.494;2023-04-09T07:00:22;52.20;;;33.80;;
2756;SDS011;1386;50.862;6.494;2023-04-09T07:02:52;54.67;;;32.40;;
2756;SDS011;1386;50.862;6.494;2023-04-09T07:05:19;38.10;;;25.27;;
2756;SDS011;1386;50.862;6.494;2023-04-09T07:07:46;43.37;;;28.23;;
2756;SDS011;1386;50.862;6.494;2023-04-09T07:10:13;48.73;;;31.20;;
2756;SDS011;1386;50.862;6.494;2023-04-09T07:12:41;38.07;;;26.57;;
2756;SDS011;1386;50.862;6.494;2023-04-09T07:15:10;37.57;;;24.63;;
2756;SDS011;1386;50.862;6.494;2023-04-09T07:17:40;35.23;;;25.47;;
2756;SDS011;1386;50.862;6.494;2023-04-09T07:20:08;36.93;;;25.17;;
2756;SDS011;1386;50.862;6.494;2023-04-09T07:22:35;36.50;;;25.67;;
2756;SDS011;1386;50.862;6.494;2023-04-09T07:25:02;35.60;;;24.23;;
2756;SDS011;1386;50.862;6.494;2023-04-09T07:27:29;37.97;;;23.70;;
2756;SDS011;1386;50.862;6.494;2023-04-09T07:29:59;35.90;;;25.23;;
2756;SDS011;1386;50.862;6.494;2023-04-09T07:36:14;36.63;;;23.63;;
2756;SDS011;1386;50.862;6.494;2023-04-09T07:38:41;35.43;;;23.70;;
2756;SDS011;1386;50.862;6.494;2023-04-09T07:41:09;31.47;;;22.07;;
2756;SDS011;1386;50.862;6.494;2023-04-09T07:43:36;30.10;;;21.00;;
2756;SDS011;1386;50.862;6.494;2023-04-09T07:46:21;33.07;;;23.67;;
2756;SDS011;1386;50.862;6.494;2023-04-09T07:48:52;28.27;;;20.23;;
2756;SDS011;1386;50.862;6.494;2023-04-09T07:51:20;30.27;;;21.40;;
2756;SDS011;1386;50.862;6.494;2023-04-09T07:53:47;31.27;;;21.20;;
2756;SDS011;1386;50.862;6.494;2023-04-09T07:56:22;31.43;;;22.43;;
2756;SDS011;1386;50.862;6.494;2023-04-09T08:01:53;28.70;;;20.43;;
2756;SDS011;1386;50.862;6.494;2023-04-09T08:04:30;31.63;;;22.50;;
2756;SDS011;1386;50.862;6.494;2023-04-09T08:06:58;32.67;;;22.93;;
2756;SDS011;1386;50.862;6.494;2023-04-09T08:09:25;30.77;;;21.03;;
2756;SDS011;1386;50.862;6.494;2023-04-09T08:12:07;28.97;;;20.07;;
2756;SDS011;1386;50.862;6.494;2023-04-09T08:14:50;29.03;;;20.00;;
2756;SDS011;1386;50.862;6.494;2023-04-09T08:17:26;28.30;;;18.97;;
2756;SDS011;1386;50.862;6.494;2023-04-09T08:19:54;22.67;;;16.50;;
2756;SDS011;1386;50.862;6.494;2023-04-09T08:22:23;23.47;;;17.20;;
2756;SDS011;1386;50.862;6.494;2023-04-09T08:24:50;19.77;;;15.20;;
2756;SDS011;1386;50.862;6.494;2023-04-09T08:27:17;22.90;;;17.07;;
2756;SDS011;1386;50.862;6.494;2023-04-09T08:32:31;20.47;;;15.53;;
2756;SDS011;1386;50.862;6.494;2023-04-09T08:34:59;20.50;;;15.33;;
2756;SDS011;1386;50.862;6.494;2023-04-09T08:37:33;23.27;;;17.23;;
2756;SDS011;1386;50.862;6.494;2023-04-09T08:40:00;19.50;;;14.27;;
2756;SDS011;1386;50.862;6.494;2023-04-09T08:42:27;17.57;;;13.10;;
2756;SDS011;1386;50.862;6.494;2023-04-09T08:44:56;18.63;;;12.43;;
2756;SDS011;1386;50.862;6.494;2023-04-09T08:47:23;15.87;;;12.40;;
2756;SDS011;1386;50.862;6.494;2023-04-09T08:49:51;17.00;;;12.97;;
2756;SDS011;1386;50.862;6.494;2023-04-09T08:52:18;17.60;;;13.80;;
2756;SDS011;1386;50.862;6.494;2023-04-09T11:03:20;7.20;;;5.30;;
2756;SDS011;1386;50.862;6.494;2023-04-09T11:05:52;9.17;;;5.40;;
2756;SDS011;1386;50.862;6.494;2023-04-09T11:08:22;6.23;;;5.23;;
2756;SDS011;1386;50.862;6.494;2023-04-09T11:11:03;5.63;;;4.87;;
